createdAt,value
2022-09-24T00:02:10.801Z,10.36
2022-09-24T00:04:41.005Z,10.40
2022-09-24T00:07:11.091Z,10.46
2022-09-24T00:09:41.327Z,10.51
2022-09-24T00:12:13.303Z,10.59
2022-09-24T00:14:43.656Z,10.61
2022-09-24T00:17:16.268Z,10.67
2022-09-24T00:19:46.248Z,10.69
2022-09-24T00:22:16.354Z,10.67
2022-09-24T00:24:58.767Z,10.71
2022-09-24T00:27:30.513Z,10.72
2022-09-24T00:30:00.602Z,10.68
2022-09-24T00:32:33.113Z,10.64
2022-09-24T00:35:03.081Z,10.54
2022-09-24T00:37:33.048Z,10.41
2022-09-24T00:40:03.020Z,10.38
2022-09-24T00:42:32.922Z,10.34
2022-09-24T00:45:05.370Z,10.28
2022-09-24T00:47:42.607Z,10.17
2022-09-24T00:50:26.491Z,9.97
2022-09-24T00:53:01.674Z,9.89
2022-09-24T00:55:32.864Z,9.86
2022-09-24T00:58:08.810Z,9.81
2022-09-24T01:00:45.557Z,9.91
2022-09-24T01:03:25.978Z,9.94
2022-09-24T01:05:56.237Z,9.70
2022-09-24T01:08:26.267Z,9.58
2022-09-24T01:11:16.047Z,9.58
2022-09-24T01:14:11.550Z,9.59
2022-09-24T01:16:54.660Z,9.39
2022-09-24T01:20:08.815Z,9.36
2022-09-24T01:23:01.162Z,9.30
2022-09-24T01:25:45.332Z,9.23
2022-09-24T01:28:37.497Z,9.13
2022-09-24T01:31:20.473Z,9.03
2022-09-24T01:33:56.097Z,9.01
2022-09-24T01:36:29.101Z,8.98
2022-09-24T01:39:02.201Z,8.93
2022-09-24T01:41:34.243Z,9.02
2022-09-24T01:44:07.510Z,9.07
2022-09-24T01:46:41.845Z,8.99
2022-09-24T01:49:12.307Z,8.96
2022-09-24T01:51:48.817Z,8.92
2022-09-24T01:54:26.509Z,8.79
2022-09-24T01:57:10.735Z,8.75
2022-09-24T01:59:47.732Z,8.69
2022-09-24T02:02:29.045Z,8.68
2022-09-24T02:05:08.854Z,8.66
2022-09-24T02:07:45.505Z,8.58
2022-09-24T02:10:18.520Z,8.54
2022-09-24T02:12:53.946Z,8.49
2022-09-24T02:15:32.762Z,8.48
2022-09-24T02:18:10.811Z,8.48
2022-09-24T02:20:46.099Z,8.53
2022-09-24T02:23:18.974Z,8.57
2022-09-24T02:25:55.146Z,8.56
2022-09-24T02:28:25.168Z,8.63
2022-09-24T02:31:00.276Z,8.62
2022-09-24T02:33:49.130Z,8.69
2022-09-24T02:36:20.170Z,8.80
2022-09-24T02:38:50.097Z,8.89
2022-09-24T02:41:22.390Z,8.98
2022-09-24T02:43:52.598Z,9.07
2022-09-24T02:46:23.015Z,9.09
2022-09-24T02:48:55.950Z,9.17
2022-09-24T02:51:26.505Z,9.09
2022-09-24T02:53:56.444Z,9.22
2022-09-24T02:56:26.355Z,9.31
2022-09-24T02:58:56.474Z,9.41
2022-09-24T03:01:26.823Z,9.53
2022-09-24T03:03:59.570Z,9.57
2022-09-24T03:06:30.438Z,9.63
2022-09-24T03:09:00.996Z,9.69
2022-09-24T03:11:33.132Z,9.77
2022-09-24T03:14:03.381Z,9.77
2022-09-24T03:16:33.786Z,9.76
2022-09-24T03:19:06.395Z,9.87
2022-09-24T03:21:37.054Z,9.93
2022-09-24T03:24:07.379Z,9.97
2022-09-24T03:26:38.143Z,10.04
2022-09-24T03:29:08.058Z,10.02
2022-09-24T03:31:35.505Z,9.91
2022-09-24T03:34:08.155Z,10.03
2022-09-24T03:36:38.337Z,10.11
2022-09-24T03:39:08.393Z,10.15
2022-09-24T03:41:38.377Z,10.15
2022-09-24T03:44:08.733Z,10.17
2022-09-24T03:46:39.081Z,10.20
2022-09-24T03:49:12.003Z,10.16
2022-09-24T03:51:41.990Z,10.23
2022-09-24T03:54:11.998Z,10.28
2022-09-24T03:56:42.067Z,10.33
2022-09-24T03:59:13.800Z,10.39
2022-09-24T04:01:43.854Z,10.42
2022-09-24T04:04:16.909Z,10.42
2022-09-24T04:06:46.841Z,10.36
2022-09-24T04:09:16.761Z,10.27
2022-09-24T04:11:46.815Z,10.31
2022-09-24T04:14:16.830Z,10.36
2022-09-24T04:16:46.806Z,10.47
2022-09-24T04:19:19.628Z,10.50
2022-09-24T04:21:49.716Z,10.43
2022-09-24T04:24:19.975Z,10.41
2022-09-24T04:26:50.432Z,10.51
2022-09-24T04:29:21.219Z,10.42
2022-09-24T04:31:51.621Z,10.39
2022-09-24T04:34:24.177Z,10.40
2022-09-24T04:36:54.116Z,10.48
2022-09-24T04:39:27.333Z,10.57
2022-09-24T04:41:57.540Z,10.61
2022-09-24T04:44:27.894Z,10.63
2022-09-24T04:47:03.019Z,10.61
2022-09-24T04:49:35.589Z,10.56
2022-09-24T04:52:05.563Z,10.58
2022-09-24T04:54:35.498Z,10.59
2022-09-24T04:57:05.450Z,10.47
2022-09-24T04:59:35.575Z,10.35
2022-09-24T05:02:09.683Z,10.31
2022-09-24T05:04:43.756Z,10.22
2022-09-24T05:07:14.870Z,10.17
2022-09-24T05:09:44.853Z,10.16
2022-09-24T05:12:14.848Z,10.15
2022-09-24T05:14:45.018Z,10.11
2022-09-24T05:17:15.016Z,10.15
2022-09-24T05:19:47.605Z,10.13
2022-09-24T05:22:17.550Z,10.19
2022-09-24T05:24:47.535Z,10.23
2022-09-24T05:27:14.900Z,10.27
2022-09-24T05:29:46.321Z,10.29
2022-09-24T05:32:19.972Z,10.25
2022-09-24T05:34:53.485Z,10.31
2022-09-24T05:37:23.684Z,10.41
2022-09-24T05:39:54.110Z,10.42
2022-09-24T05:42:24.351Z,10.44
2022-09-24T05:44:54.262Z,10.41
2022-09-24T05:47:24.185Z,10.47
2022-09-24T05:49:56.733Z,10.59
2022-09-24T05:52:26.821Z,10.63
2022-09-24T05:54:57.315Z,10.68
2022-09-24T05:57:27.306Z,10.72
2022-09-24T05:59:57.247Z,10.82
2022-09-24T06:02:27.180Z,10.82
2022-09-24T06:04:59.678Z,10.81
2022-09-24T06:07:29.793Z,10.89
2022-09-24T06:10:00.921Z,11.09
2022-09-24T06:12:31.240Z,11.25
2022-09-24T06:15:01.244Z,11.41
2022-09-24T06:17:32.420Z,11.47
2022-09-24T06:20:05.202Z,11.54
2022-09-24T06:22:35.350Z,11.71
2022-09-24T06:25:05.383Z,11.86
2022-09-24T06:27:35.328Z,12.01
2022-09-24T06:30:05.324Z,12.09
2022-09-24T06:32:35.507Z,12.19
2022-09-24T06:35:09.103Z,12.38
2022-09-24T06:37:39.062Z,12.46
2022-09-24T06:40:12.600Z,12.58
2022-09-24T06:42:42.915Z,12.73
2022-09-24T06:45:15.246Z,12.80
2022-09-24T06:47:45.885Z,12.62
2022-09-24T06:50:18.664Z,12.96
2022-09-24T06:52:48.699Z,13.12
2022-09-24T06:55:20.057Z,13.21
2022-09-24T06:57:50.073Z,13.15
2022-09-24T07:00:20.998Z,13.06
2022-09-24T07:02:54.743Z,13.15
2022-09-24T07:05:27.322Z,13.29
2022-09-24T07:07:57.396Z,13.07
2022-09-24T07:10:28.068Z,13.34
2022-09-24T07:12:58.263Z,13.49
2022-09-24T07:15:28.400Z,13.70
2022-09-24T07:17:59.214Z,13.75
2022-09-24T07:20:33.452Z,13.82
2022-09-24T07:23:03.370Z,13.82
2022-09-24T07:25:33.545Z,13.80
2022-09-24T07:28:08.005Z,13.75
2022-09-24T07:30:39.334Z,13.78
2022-09-24T07:33:10.301Z,13.72
2022-09-24T07:35:43.426Z,13.74
2022-09-24T07:38:15.667Z,13.86
2022-09-24T07:40:45.748Z,13.93
2022-09-24T07:43:15.724Z,13.90
2022-09-24T07:45:46.479Z,14.19
2022-09-24T07:48:16.587Z,14.40
2022-09-24T07:50:49.100Z,14.52
2022-09-24T07:53:19.041Z,14.59
2022-09-24T07:55:49.499Z,14.74
2022-09-24T07:58:19.511Z,14.97
2022-09-24T08:00:49.913Z,15.15
2022-09-24T08:03:19.889Z,15.39
2022-09-24T08:05:56.664Z,15.39
2022-09-24T08:08:27.080Z,15.37
2022-09-24T08:10:57.218Z,15.53
2022-09-24T08:13:28.098Z,15.69
2022-09-24T08:16:02.169Z,15.95
2022-09-24T08:18:34.831Z,16.12
2022-09-24T08:21:11.938Z,16.38
2022-09-24T08:23:43.015Z,16.37
2022-09-24T08:26:15.048Z,16.44
2022-09-24T08:28:45.139Z,16.50
2022-09-24T08:31:17.049Z,16.71
2022-09-24T08:33:50.782Z,17.11
2022-09-24T08:36:23.312Z,17.39
2022-09-24T08:38:57.623Z,17.70
2022-09-24T08:41:57.233Z,17.86
2022-09-24T08:44:49.982Z,17.90
2022-09-24T08:47:36.501Z,17.88
2022-09-24T08:50:17.636Z,17.62
2022-09-24T08:53:08.976Z,17.72
2022-09-24T08:55:43.907Z,17.60
2022-09-24T08:58:40.476Z,17.76
2022-09-24T09:01:27.423Z,17.67
2022-09-24T09:04:05.110Z,17.71
2022-09-24T09:07:04.305Z,17.57
2022-09-24T09:09:48.816Z,18.18
2022-09-24T09:12:26.644Z,18.72
2022-09-24T09:15:05.554Z,18.99
2022-09-24T09:17:45.867Z,19.23
2022-09-24T09:20:23.302Z,19.75
2022-09-24T09:22:56.071Z,20.56
2022-09-24T09:25:33.606Z,20.61
2022-09-24T09:28:11.308Z,20.59
2022-09-24T09:30:51.925Z,20.48
2022-09-24T09:33:43.598Z,20.96
2022-09-24T09:36:38.451Z,21.41
2022-09-24T09:39:31.760Z,21.20
2022-09-24T09:42:19.034Z,21.09
2022-09-24T09:44:49.503Z,20.92
2022-09-24T09:47:36.115Z,20.79
2022-09-24T09:50:15.444Z,20.84
2022-09-24T09:52:45.420Z,20.63
2022-09-24T09:55:26.470Z,20.59
2022-09-24T09:58:19.848Z,20.02
2022-09-24T10:00:51.068Z,20.13
2022-09-24T10:03:31.556Z,20.09
2022-09-24T10:06:04.737Z,20.54
2022-09-24T10:08:35.650Z,21.07
2022-09-24T10:11:07.630Z,21.60
2022-09-24T10:13:40.366Z,22.09
2022-09-24T10:16:15.782Z,21.85
2022-09-24T10:18:51.110Z,21.60
2022-09-24T10:21:35.170Z,22.11
2022-09-24T10:24:11.918Z,21.90
2022-09-24T10:26:45.813Z,21.64
2022-09-24T10:29:35.086Z,21.61
2022-09-24T10:32:06.880Z,21.36
2022-09-24T10:34:36.913Z,20.85
2022-09-24T10:37:19.033Z,19.82
2022-09-24T10:39:59.324Z,19.70
2022-09-24T10:42:32.024Z,20.02
2022-09-24T10:45:06.984Z,20.24
2022-09-24T10:47:51.450Z,20.16
2022-09-24T10:50:34.440Z,20.18
2022-09-24T10:53:14.868Z,19.80
2022-09-24T10:55:57.330Z,19.06
2022-09-24T10:58:59.611Z,18.31
2022-09-24T11:01:47.233Z,18.08
2022-09-24T11:04:48.066Z,17.60
2022-09-24T11:07:44.872Z,17.67
2022-09-24T11:10:33.453Z,16.99
2022-09-24T11:13:17.169Z,16.88
2022-09-24T11:16:31.426Z,16.70
2022-09-24T11:19:12.458Z,16.84
2022-09-24T11:22:05.860Z,16.94
2022-09-24T11:25:11.697Z,16.72
2022-09-24T11:27:58.656Z,16.88
2022-09-24T11:30:46.252Z,17.25
2022-09-24T11:33:34.984Z,17.28
2022-09-24T11:36:39.011Z,17.63
2022-09-24T11:39:33.322Z,17.49
2022-09-24T11:42:19.782Z,17.53
2022-09-24T11:45:35.936Z,17.11
2022-09-24T11:48:50.616Z,16.84
2022-09-24T11:51:42.220Z,16.76
2022-09-24T11:54:26.137Z,16.74
2022-09-24T11:57:03.872Z,16.61
2022-09-24T11:59:47.412Z,16.46
2022-09-24T12:02:25.250Z,16.79
2022-09-24T12:05:06.833Z,17.09
2022-09-24T12:07:48.328Z,17.41
2022-09-24T12:10:34.654Z,17.57
2022-09-24T12:13:19.739Z,17.60
2022-09-24T12:15:57.232Z,17.71
2022-09-24T12:18:33.152Z,17.91
2022-09-24T12:21:10.260Z,17.98
2022-09-24T12:23:51.394Z,18.00
2022-09-24T12:26:25.341Z,18.03
2022-09-24T12:29:27.760Z,18.13
2022-09-24T12:32:19.584Z,17.95
2022-09-24T12:34:59.276Z,18.15
2022-09-24T12:37:42.084Z,18.16
2022-09-24T12:40:52.681Z,18.07
2022-09-24T12:43:32.075Z,18.04
2022-09-24T12:46:05.675Z,17.96
2022-09-24T12:48:41.646Z,17.89
2022-09-24T12:51:14.574Z,17.77
2022-09-24T12:53:46.695Z,17.82
2022-09-24T12:56:29.719Z,17.86
2022-09-24T12:59:00.703Z,17.95
2022-09-24T13:01:34.504Z,17.86
2022-09-24T13:04:24.656Z,17.72
2022-09-24T13:06:55.506Z,17.73
2022-09-24T13:09:38.330Z,17.76
2022-09-24T13:12:24.954Z,17.76
2022-09-24T13:15:04.381Z,17.71
2022-09-24T13:17:38.668Z,17.56
2022-09-24T13:20:20.541Z,17.71
2022-09-24T13:23:01.050Z,17.64
2022-09-24T13:25:31.371Z,17.55
2022-09-24T13:28:07.080Z,17.24
2022-09-24T13:30:44.383Z,17.20
2022-09-24T13:33:28.183Z,16.93
2022-09-24T13:36:14.662Z,16.82
2022-09-24T13:38:56.932Z,16.60
2022-09-24T13:41:44.452Z,16.43
2022-09-24T13:44:26.333Z,16.36
2022-09-24T13:47:04.608Z,16.26
2022-09-24T13:49:37.163Z,16.09
2022-09-24T13:52:20.014Z,15.84
2022-09-24T13:54:57.417Z,16.03
2022-09-24T13:57:29.870Z,16.03
2022-09-24T14:00:19.997Z,16.23
2022-09-24T14:03:03.497Z,16.83
2022-09-24T14:05:38.910Z,17.56
2022-09-24T14:08:15.672Z,17.85
2022-09-24T14:10:48.517Z,18.28
2022-09-24T14:13:24.111Z,18.67
2022-09-24T14:16:00.069Z,19.01
2022-09-24T14:18:31.872Z,18.64
2022-09-24T14:21:10.595Z,18.73
2022-09-24T14:23:49.896Z,18.77
2022-09-24T14:26:30.966Z,18.62
2022-09-24T14:29:06.528Z,18.42
2022-09-24T14:31:47.917Z,18.42
2022-09-24T14:34:29.873Z,18.39
2022-09-24T14:37:09.810Z,18.27
2022-09-24T14:39:44.815Z,18.16
2022-09-24T14:42:24.812Z,17.92
2022-09-24T14:44:55.993Z,17.70
2022-09-24T14:47:32.986Z,17.49
2022-09-24T14:50:04.203Z,17.33
2022-09-24T14:52:37.821Z,17.02
2022-09-24T14:55:18.950Z,16.93
2022-09-24T14:57:56.847Z,16.79
2022-09-24T15:00:34.051Z,16.53
2022-09-24T15:03:15.476Z,16.40
2022-09-24T15:05:47.140Z,16.34
2022-09-24T15:08:30.702Z,16.24
2022-09-24T15:11:04.945Z,16.27
2022-09-24T15:13:38.818Z,16.38
2022-09-24T15:16:22.320Z,16.45
2022-09-24T15:19:14.306Z,16.57
2022-09-24T15:21:45.166Z,16.62
2022-09-24T15:24:15.263Z,16.68
2022-09-24T15:26:49.107Z,16.69
2022-09-24T15:29:24.518Z,16.70
2022-09-24T15:31:54.973Z,16.73
2022-09-24T15:34:28.572Z,16.68
2022-09-24T15:37:01.809Z,16.67
2022-09-24T15:39:32.836Z,16.62
2022-09-24T15:42:02.809Z,16.65
2022-09-24T15:44:34.206Z,16.69
2022-09-24T15:47:04.359Z,16.78
2022-09-24T15:49:36.889Z,17.03
2022-09-24T15:52:14.734Z,17.12
2022-09-24T15:54:44.903Z,17.07
2022-09-24T15:57:15.566Z,17.14
2022-09-24T15:59:45.583Z,17.24
2022-09-24T16:02:21.217Z,17.45
2022-09-24T16:04:53.839Z,17.55
2022-09-24T16:07:24.414Z,17.65
2022-09-24T16:09:54.834Z,17.60
2022-09-24T16:12:28.092Z,17.48
2022-09-24T16:15:00.658Z,17.25
2022-09-24T16:17:31.325Z,17.14
2022-09-24T16:20:04.657Z,16.97
2022-09-24T16:22:34.595Z,16.66
2022-09-24T16:25:04.587Z,16.47
2022-09-24T16:27:35.369Z,16.43
2022-09-24T16:30:06.858Z,16.24
2022-09-24T16:32:36.906Z,16.17
2022-09-24T16:35:11.335Z,16.05
2022-09-24T16:37:41.339Z,15.90
2022-09-24T16:40:13.270Z,15.73
2022-09-24T16:42:43.303Z,15.54
2022-09-24T16:45:14.135Z,15.42
2022-09-24T16:47:44.046Z,15.32
2022-09-24T16:50:16.830Z,15.15
2022-09-24T16:52:49.212Z,15.06
2022-09-24T16:55:19.731Z,14.95
2022-09-24T16:57:49.679Z,14.84
2022-09-24T17:00:19.835Z,14.70
2022-09-24T17:02:49.871Z,14.63
2022-09-24T17:05:22.487Z,14.53
2022-09-24T17:07:52.455Z,14.53
2022-09-24T17:10:22.724Z,14.44
2022-09-24T17:12:54.114Z,14.38
2022-09-24T17:15:24.154Z,14.36
2022-09-24T17:17:54.407Z,14.27
2022-09-24T17:20:26.967Z,14.30
2022-09-24T17:22:57.009Z,14.16
2022-09-24T17:25:27.860Z,14.11
2022-09-24T17:27:57.769Z,14.08
2022-09-24T17:30:27.682Z,14.04
2022-09-24T17:32:58.206Z,14.00
2022-09-24T17:35:30.739Z,13.94
2022-09-24T17:38:00.657Z,13.94
2022-09-24T17:40:30.719Z,13.90
2022-09-24T17:43:01.230Z,13.90
2022-09-24T17:45:31.210Z,13.92
2022-09-24T17:48:01.173Z,13.96
2022-09-24T17:50:34.001Z,14.04
2022-09-24T17:53:04.435Z,14.02
2022-09-24T17:55:34.385Z,14.03
2022-09-24T17:58:04.363Z,14.06
2022-09-24T18:00:34.439Z,14.12
2022-09-24T18:03:04.361Z,14.16
2022-09-24T18:05:37.936Z,14.13
2022-09-24T18:08:08.935Z,14.12
2022-09-24T18:10:39.644Z,14.06
2022-09-24T18:13:09.805Z,14.09
2022-09-24T18:15:40.731Z,14.13
2022-09-24T18:18:10.681Z,14.24
2022-09-24T18:20:43.224Z,14.22
2022-09-24T18:23:13.947Z,14.23
2022-09-24T18:25:43.948Z,14.18
2022-09-24T18:28:18.025Z,14.17
2022-09-24T18:30:48.696Z,14.11
2022-09-24T18:33:18.678Z,14.16
2022-09-24T18:35:51.190Z,14.06
2022-09-24T18:38:21.344Z,14.00
2022-09-24T18:40:51.551Z,13.98
2022-09-24T18:43:21.715Z,13.97
2022-09-24T18:45:51.711Z,13.99
2022-09-24T18:48:22.218Z,14.02
2022-09-24T18:50:54.811Z,14.02
2022-09-24T18:53:24.968Z,13.97
2022-09-24T18:55:55.145Z,13.91
2022-09-24T18:58:25.136Z,13.88
2022-09-24T19:01:00.576Z,13.75
2022-09-24T19:03:32.449Z,13.67
2022-09-24T19:06:10.498Z,13.64
2022-09-24T19:08:40.744Z,13.63
2022-09-24T19:11:14.403Z,13.54
2022-09-24T19:13:49.656Z,13.53
2022-09-24T19:16:23.647Z,13.52
2022-09-24T19:18:55.257Z,13.50
2022-09-24T19:21:27.888Z,13.51
2022-09-24T19:23:59.971Z,13.50
2022-09-24T19:26:33.873Z,13.48
2022-09-24T19:29:04.390Z,13.52
2022-09-24T19:31:38.779Z,13.52
2022-09-24T19:34:11.887Z,13.55
2022-09-24T19:36:45.395Z,13.61
2022-09-24T19:39:18.986Z,13.61
2022-09-24T19:41:52.861Z,13.57
2022-09-24T19:44:23.348Z,13.57
2022-09-24T19:46:53.264Z,13.60
2022-09-24T19:49:23.776Z,13.55
2022-09-24T19:51:56.299Z,13.54
2022-09-24T19:54:26.523Z,13.59
2022-09-24T19:56:56.903Z,13.62
2022-09-24T19:59:27.247Z,13.61
2022-09-24T20:01:57.259Z,13.61
2022-09-24T20:04:27.291Z,13.68
2022-09-24T20:07:05.044Z,13.63
2022-09-24T20:09:35.829Z,13.63
2022-09-24T20:12:06.598Z,13.63
2022-09-24T20:14:36.652Z,13.64
2022-09-24T20:17:07.119Z,13.59
2022-09-24T20:19:37.086Z,13.56
2022-09-24T20:22:12.847Z,13.54
2022-09-24T20:24:48.012Z,13.52
2022-09-24T20:27:30.433Z,13.53
2022-09-24T20:30:00.507Z,13.46
2022-09-24T20:32:31.192Z,13.48
2022-09-24T20:35:01.775Z,13.43
2022-09-24T20:37:34.594Z,13.41
2022-09-24T20:40:04.873Z,13.32
2022-09-24T20:42:34.786Z,13.36
2022-09-24T20:45:06.376Z,13.44
2022-09-24T20:47:39.004Z,13.45
2022-09-24T20:50:11.082Z,13.44
2022-09-24T20:52:43.672Z,13.41
2022-09-24T20:55:15.230Z,13.40
2022-09-24T20:57:46.072Z,13.37
2022-09-24T21:00:17.172Z,13.29
2022-09-24T21:02:47.147Z,13.22
2022-09-24T21:05:17.290Z,13.07
2022-09-24T21:07:49.775Z,12.84
2022-09-24T21:10:19.955Z,12.72
2022-09-24T21:12:51.127Z,12.68
2022-09-24T21:15:21.410Z,12.47
2022-09-24T21:18:18.289Z,12.32
2022-09-24T21:20:42.598Z,12.26
2022-09-24T21:23:16.539Z,12.15
2022-09-24T21:25:54.528Z,11.99
2022-09-24T21:28:24.770Z,11.94
2022-09-24T21:31:03.560Z,11.76
2022-09-24T21:33:34.981Z,11.67
2022-09-24T21:36:06.579Z,11.67
2022-09-24T21:38:39.045Z,11.61
2022-09-24T21:41:09.577Z,11.46
2022-09-24T21:43:41.858Z,11.29
2022-09-24T21:46:11.941Z,11.33
2022-09-24T21:48:42.523Z,11.33
2022-09-24T21:51:20.188Z,11.28
2022-09-24T21:53:54.352Z,11.24
2022-09-24T21:56:25.094Z,11.22
2022-09-24T21:58:56.372Z,11.23
2022-09-24T22:01:29.969Z,11.28
2022-09-24T22:04:04.149Z,11.29
2022-09-24T22:06:35.140Z,11.37
2022-09-24T22:09:10.352Z,11.52
2022-09-24T22:11:40.780Z,11.51
2022-09-24T22:14:12.128Z,11.55
2022-09-24T22:16:42.788Z,11.61
2022-09-24T22:19:12.839Z,11.55
2022-09-24T22:21:43.197Z,11.54
2022-09-24T22:24:15.820Z,11.62
2022-09-24T22:26:46.161Z,11.67
2022-09-24T22:29:16.550Z,11.99
2022-09-24T22:31:49.450Z,12.20
2022-09-24T22:34:32.457Z,12.08
2022-09-24T22:37:02.362Z,11.95
2022-09-24T22:39:36.929Z,11.83
2022-09-24T22:42:07.426Z,11.87
2022-09-24T22:44:37.408Z,11.86
2022-09-24T22:47:07.462Z,11.90
2022-09-24T22:49:38.028Z,11.88
2022-09-24T22:52:07.946Z,11.87
2022-09-24T22:54:40.425Z,11.91
2022-09-24T22:57:10.350Z,11.90
2022-09-24T22:59:40.296Z,11.92
2022-09-24T23:02:13.155Z,12.06
2022-09-24T23:04:43.553Z,12.33
2022-09-24T23:07:16.530Z,12.21
2022-09-24T23:09:49.151Z,12.13
2022-09-24T23:12:19.118Z,12.26
2022-09-24T23:14:50.322Z,12.18
2022-09-24T23:20:03.198Z,12.04
2022-09-24T23:22:33.163Z,12.11
2022-09-24T23:30:28.207Z,11.96
2022-09-24T23:32:58.172Z,11.94
2022-09-24T23:35:28.231Z,12.01
2022-09-24T23:37:58.139Z,12.18
2022-09-24T23:40:29.905Z,12.18
2022-09-24T23:42:59.844Z,12.19
2022-09-24T23:45:32.423Z,12.03
2022-09-24T23:48:02.378Z,11.96
2022-09-24T23:50:32.480Z,11.77
2022-09-24T23:53:02.371Z,11.81
2022-09-24T23:55:32.394Z,11.73
2022-09-24T23:58:02.300Z,11.81
